sensor_id;sensor_type;location;lat;lon;timestamp;pressure;altitude;pressure_sealevel;temperature;humidity
62708;BME280;48769;51.624;5.886;2023-07-29T00:01:17;100590.66;;;19.48;100.00
62708;BME280;48769;51.624;5.886;2023-07-29T00:03:43;100589.84;;;19.47;100.00
62708;BME280;48769;51.624;5.886;2023-07-29T00:06:09;100588.28;;;19.45;100.00
62708;BME280;48769;51.624;5.886;2023-07-29T00:08:35;100590.25;;;19.43;100.00
62708;BME280;48769;51.624;5.886;2023-07-29T00:11:03;100584.31;;;19.39;100.00
62708;BME280;48769;51.624;5.886;2023-07-29T00:13:28;100581.81;;;19.37;100.00
62708;BME280;48769;51.624;5.886;2023-07-29T00:15:54;100569.66;;;19.33;100.00
62708;BME280;48769;51.624;5.886;2023-07-29T00:18:21;100560.09;;;19.31;100.00
62708;BME280;48769;51.624;5.886;2023-07-29T00:20:46;100561.63;;;19.33;100.00
62708;BME280;48769;51.624;5.886;2023-07-29T00:23:11;100552.63;;;19.34;100.00
62708;BME280;48769;51.624;5.886;2023-07-29T00:25:37;100538.38;;;19.34;100.00
62708;BME280;48769;51.624;5.886;2023-07-29T00:28:02;100544.59;;;19.34;100.00
62708;BME280;48769;51.624;5.886;2023-07-29T00:30:27;100531.47;;;19.31;100.00
62708;BME280;48769;51.624;5.886;2023-07-29T00:32:53;100539.50;;;19.31;100.00
62708;BME280;48769;51.624;5.886;2023-07-29T00:35:18;100534.44;;;19.28;100.00
62708;BME280;48769;51.624;5.886;2023-07-29T00:37:43;100538.41;;;19.24;100.00
62708;BME280;48769;51.624;5.886;2023-07-29T00:40:19;100542.31;;;19.20;100.00
62708;BME280;48769;51.624;5.886;2023-07-29T00:42:45;100541.63;;;19.18;100.00
62708;BME280;48769;51.624;5.886;2023-07-29T00:45:11;100552.47;;;19.17;100.00
62708;BME280;48769;51.624;5.886;2023-07-29T00:47:37;100561.34;;;19.17;100.00
62708;BME280;48769;51.624;5.886;2023-07-29T00:50:03;100553.59;;;19.14;100.00
62708;BME280;48769;51.624;5.886;2023-07-29T00:52:29;100556.44;;;19.12;100.00
62708;BME280;48769;51.624;5.886;2023-07-29T00:54:54;100555.59;;;19.12;100.00
62708;BME280;48769;51.624;5.886;2023-07-29T00:57:20;100557.16;;;19.14;100.00
62708;BME280;48769;51.624;5.886;2023-07-29T00:59:46;100556.28;;;19.14;100.00
62708;BME280;48769;51.624;5.886;2023-07-29T01:02:12;100549.13;;;19.14;100.00
62708;BME280;48769;51.624;5.886;2023-07-29T01:04:37;100543.75;;;19.14;100.00
62708;BME280;48769;51.624;5.886;2023-07-29T01:09:57;100527.41;;;19.18;100.00
62708;BME280;48769;51.624;5.886;2023-07-29T01:15:08;100535.28;;;19.19;100.00
62708;BME280;48769;51.624;5.886;2023-07-29T01:17:55;100533.06;;;19.14;100.00
62708;BME280;48769;51.624;5.886;2023-07-29T01:20:25;100537.84;;;19.11;100.00
62708;BME280;48769;51.624;5.886;2023-07-29T01:22:50;100527.13;;;19.11;100.00
62708;BME280;48769;51.624;5.886;2023-07-29T01:25:16;100534.56;;;19.07;100.00
62708;BME280;48769;51.624;5.886;2023-07-29T01:27:44;100535.56;;;19.06;100.00
62708;BME280;48769;51.624;5.886;2023-07-29T01:30:10;100540.09;;;19.06;100.00
62708;BME280;48769;51.624;5.886;2023-07-29T01:32:43;100529.66;;;19.03;100.00
62708;BME280;48769;51.624;5.886;2023-07-29T01:37:34;100540.66;;;18.90;100.00
62708;BME280;48769;51.624;5.886;2023-07-29T01:40:02;100536.97;;;18.91;100.00
62708;BME280;48769;51.624;5.886;2023-07-29T01:42:29;100537.84;;;18.91;100.00
62708;BME280;48769;51.624;5.886;2023-07-29T01:44:55;100530.09;;;18.88;100.00
62708;BME280;48769;51.624;5.886;2023-07-29T01:47:21;100536.13;;;18.90;100.00
62708;BME280;48769;51.624;5.886;2023-07-29T01:49:48;100534.44;;;18.89;100.00
62708;BME280;48769;51.624;5.886;2023-07-29T01:52:13;100531.78;;;18.89;100.00
62708;BME280;48769;51.624;5.886;2023-07-29T01:54:38;100533.63;;;18.89;100.00
62708;BME280;48769;51.624;5.886;2023-07-29T01:57:04;100529.09;;;18.89;100.00
62708;BME280;48769;51.624;5.886;2023-07-29T01:59:29;100535.16;;;18.91;100.00
62708;BME280;48769;51.624;5.886;2023-07-29T02:01:54;100531.34;;;18.94;100.00
62708;BME280;48769;51.624;5.886;2023-07-29T02:04:19;100533.63;;;18.99;100.00
62708;BME280;48769;51.624;5.886;2023-07-29T02:06:45;100530.78;;;19.00;100.00
62708;BME280;48769;51.624;5.886;2023-07-29T02:09:10;100538.97;;;18.99;100.00
62708;BME280;48769;51.624;5.886;2023-07-29T02:11:35;100530.22;;;18.97;100.00
62708;BME280;48769;51.624;5.886;2023-07-29T02:14:01;100530.94;;;18.99;100.00
62708;BME280;48769;51.624;5.886;2023-07-29T02:16:26;100528.25;;;18.99;100.00
62708;BME280;48769;51.624;5.886;2023-07-29T02:18:51;100531.91;;;18.98;100.00
62708;BME280;48769;51.624;5.886;2023-07-29T02:21:17;100527.53;;;18.97;100.00
62708;BME280;48769;51.624;5.886;2023-07-29T02:23:42;100531.06;;;18.97;100.00
62708;BME280;48769;51.624;5.886;2023-07-29T02:26:08;100533.91;;;18.96;100.00
62708;BME280;48769;51.624;5.886;2023-07-29T02:28:33;100535.56;;;18.97;100.00
62708;BME280;48769;51.624;5.886;2023-07-29T02:31:14;100547.00;;;18.99;100.00
62708;BME280;48769;51.624;5.886;2023-07-29T02:33:41;100536.97;;;19.01;100.00
62708;BME280;48769;51.624;5.886;2023-07-29T02:36:06;100532.06;;;19.06;100.00
62708;BME280;48769;51.624;5.886;2023-07-29T02:38:31;100529.81;;;19.11;100.00
62708;BME280;48769;51.624;5.886;2023-07-29T02:40:57;100526.25;;;19.10;100.00
62708;BME280;48769;51.624;5.886;2023-07-29T02:43:22;100522.63;;;19.11;100.00
62708;BME280;48769;51.624;5.886;2023-07-29T02:45:47;100530.78;;;19.10;100.00
62708;BME280;48769;51.624;5.886;2023-07-29T02:48:13;100531.91;;;19.07;100.00
62708;BME280;48769;51.624;5.886;2023-07-29T02:50:38;100527.41;;;19.08;100.00
62708;BME280;48769;51.624;5.886;2023-07-29T02:53:04;100540.09;;;19.06;100.00
62708;BME280;48769;51.624;5.886;2023-07-29T02:55:29;100537.97;;;19.09;100.00
62708;BME280;48769;51.624;5.886;2023-07-29T02:57:54;100541.22;;;19.13;100.00
62708;BME280;48769;51.624;5.886;2023-07-29T03:00:20;100529.66;;;19.12;100.00
62708;BME280;48769;51.624;5.886;2023-07-29T03:02:45;100526.25;;;19.10;100.00
62708;BME280;48769;51.624;5.886;2023-07-29T03:05:10;100528.81;;;19.12;100.00
62708;BME280;48769;51.624;5.886;2023-07-29T03:07:36;100525.88;;;19.05;100.00
62708;BME280;48769;51.624;5.886;2023-07-29T03:10:01;100529.66;;;19.03;100.00
62708;BME280;48769;51.624;5.886;2023-07-29T03:12:27;100522.91;;;18.99;100.00
62708;BME280;48769;51.624;5.886;2023-07-29T03:14:52;100519.78;;;18.94;100.00
62708;BME280;48769;51.624;5.886;2023-07-29T03:17:17;100521.78;;;18.91;100.00
62708;BME280;48769;51.624;5.886;2023-07-29T03:19:43;100515.44;;;18.92;100.00
62708;BME280;48769;51.624;5.886;2023-07-29T03:22:08;100512.75;;;18.92;100.00
62708;BME280;48769;51.624;5.886;2023-07-29T03:24:33;100512.19;;;18.89;100.00
62708;BME280;48769;51.624;5.886;2023-07-29T03:26:59;100515.56;;;18.81;100.00
62708;BME280;48769;51.624;5.886;2023-07-29T03:29:24;100512.19;;;18.79;100.00
62708;BME280;48769;51.624;5.886;2023-07-29T03:31:50;100511.63;;;18.76;100.00
62708;BME280;48769;51.624;5.886;2023-07-29T03:34:15;100514.97;;;18.68;100.00
62708;BME280;48769;51.624;5.886;2023-07-29T03:36:40;100511.88;;;18.63;100.00
62708;BME280;48769;51.624;5.886;2023-07-29T03:39:06;100510.44;;;18.59;100.00
62708;BME280;48769;51.624;5.886;2023-07-29T03:41:33;100515.22;;;18.55;100.00
62708;BME280;48769;51.624;5.886;2023-07-29T03:43:58;100528.88;;;18.52;100.00
62708;BME280;48769;51.624;5.886;2023-07-29T03:46:24;100525.91;;;18.45;100.00
62708;BME280;48769;51.624;5.886;2023-07-29T03:48:50;100526.31;;;18.41;100.00
62708;BME280;48769;51.624;5.886;2023-07-29T03:51:15;100525.59;;;18.39;100.00
62708;BME280;48769;51.624;5.886;2023-07-29T03:53:40;100524.75;;;18.38;100.00
62708;BME280;48769;51.624;5.886;2023-07-29T03:56:06;100534.06;;;18.34;100.00
62708;BME280;48769;51.624;5.886;2023-07-29T03:58:32;100534.47;;;18.30;100.00
62708;BME280;48769;51.624;5.886;2023-07-29T04:00:57;100541.06;;;18.26;100.00
62708;BME280;48769;51.624;5.886;2023-07-29T04:03:23;100538.66;;;18.22;100.00
62708;BME280;48769;51.624;5.886;2023-07-29T04:05:48;100535.41;;;18.19;100.00
62708;BME280;48769;51.624;5.886;2023-07-29T04:08:13;100539.06;;;18.18;100.00
62708;BME280;48769;51.624;5.886;2023-07-29T04:10:39;100536.78;;;18.13;100.00
62708;BME280;48769;51.624;5.886;2023-07-29T04:13:04;100536.22;;;18.10;100.00
62708;BME280;48769;51.624;5.886;2023-07-29T04:15:30;100539.03;;;18.08;100.00
62708;BME280;48769;51.624;5.886;2023-07-29T04:17:55;100529.59;;;18.04;100.00
62708;BME280;48769;51.624;5.886;2023-07-29T04:20:21;100530.00;;;17.99;100.00
62708;BME280;48769;51.624;5.886;2023-07-29T04:22:46;100509.13;;;17.93;100.00
62708;BME280;48769;51.624;5.886;2023-07-29T04:25:11;100503.78;;;17.93;100.00
62708;BME280;48769;51.624;5.886;2023-07-29T04:27:38;100506.47;;;17.93;100.00
62708;BME280;48769;51.624;5.886;2023-07-29T04:30:03;100498.44;;;17.93;100.00
62708;BME280;48769;51.624;5.886;2023-07-29T04:32:29;100506.19;;;17.96;100.00
62708;BME280;48769;51.624;5.886;2023-07-29T04:34:54;100503.94;;;17.92;100.00
62708;BME280;48769;51.624;5.886;2023-07-29T04:37:20;100501.84;;;17.95;100.00
62708;BME280;48769;51.624;5.886;2023-07-29T04:39:45;100506.47;;;17.93;100.00
62708;BME280;48769;51.624;5.886;2023-07-29T04:42:11;100502.13;;;17.92;100.00
62708;BME280;48769;51.624;5.886;2023-07-29T04:44:37;100519.25;;;17.90;100.00
62708;BME280;48769;51.624;5.886;2023-07-29T04:47:02;100537.84;;;17.91;100.00
62708;BME280;48769;51.624;5.886;2023-07-29T04:49:27;100546.81;;;17.90;100.00
62708;BME280;48769;51.624;5.886;2023-07-29T04:51:53;100553.31;;;17.88;100.00
62708;BME280;48769;51.624;5.886;2023-07-29T04:54:18;100552.44;;;17.87;100.00
62708;BME280;48769;51.624;5.886;2023-07-29T04:56:46;100560.75;;;17.84;100.00
62708;BME280;48769;51.624;5.886;2023-07-29T04:59:11;100560.00;;;17.82;100.00
62708;BME280;48769;51.624;5.886;2023-07-29T05:01:38;100553.00;;;17.81;100.00
62708;BME280;48769;51.624;5.886;2023-07-29T05:04:03;100557.09;;;17.85;100.00
62708;BME280;48769;51.624;5.886;2023-07-29T05:06:28;100557.19;;;17.84;100.00
62708;BME280;48769;51.624;5.886;2023-07-29T05:08:54;100560.44;;;17.87;100.00
62708;BME280;48769;51.624;5.886;2023-07-29T05:11:19;100564.56;;;17.91;100.00
62708;BME280;48769;51.624;5.886;2023-07-29T05:13:45;100557.25;;;17.93;100.00
62708;BME280;48769;51.624;5.886;2023-07-29T05:16:10;100555.56;;;17.92;100.00
62708;BME280;48769;51.624;5.886;2023-07-29T05:18:35;100552.88;;;17.92;100.00
62708;BME280;48769;51.624;5.886;2023-07-29T05:21:01;100555.59;;;18.02;100.00
62708;BME280;48769;51.624;5.886;2023-07-29T05:23:26;100555.91;;;18.09;100.00
62708;BME280;48769;51.624;5.886;2023-07-29T05:25:51;100561.69;;;18.04;100.00
62708;BME280;48769;51.624;5.886;2023-07-29T05:28:17;100571.91;;;17.99;100.00
62708;BME280;48769;51.624;5.886;2023-07-29T05:30:43;100576.69;;;17.95;100.00
62708;BME280;48769;51.624;5.886;2023-07-29T05:33:09;100584.84;;;17.94;100.00
62708;BME280;48769;51.624;5.886;2023-07-29T05:35:34;100587.63;;;17.92;100.00
62708;BME280;48769;51.624;5.886;2023-07-29T05:38:00;100594.66;;;17.93;100.00
62708;BME280;48769;51.624;5.886;2023-07-29T05:40:25;100592.97;;;17.92;100.00
62708;BME280;48769;51.624;5.886;2023-07-29T05:42:50;100589.31;;;17.93;100.00
62708;BME280;48769;51.624;5.886;2023-07-29T05:45:16;100588.09;;;17.97;100.00
62708;BME280;48769;51.624;5.886;2023-07-29T05:47:41;100585.44;;;17.97;100.00
62708;BME280;48769;51.624;5.886;2023-07-29T05:50:07;100584.28;;;18.00;100.00
62708;BME280;48769;51.624;5.886;2023-07-29T05:52:33;100589.78;;;17.98;100.00
62708;BME280;48769;51.624;5.886;2023-07-29T05:54:58;100581.50;;;18.02;100.00
62708;BME280;48769;51.624;5.886;2023-07-29T05:57:24;100584.16;;;18.02;100.00
62708;BME280;48769;51.624;5.886;2023-07-29T05:59:49;100584.16;;;18.02;100.00
62708;BME280;48769;51.624;5.886;2023-07-29T06:02:14;100585.59;;;18.06;100.00
62708;BME280;48769;51.624;5.886;2023-07-29T06:04:40;100587.47;;;18.15;100.00
62708;BME280;48769;51.624;5.886;2023-07-29T06:07:06;100583.41;;;18.71;100.00
62708;BME280;48769;51.624;5.886;2023-07-29T06:09:31;100585.03;;;18.92;100.00
62708;BME280;48769;51.624;5.886;2023-07-29T06:11:56;100588.00;;;19.48;100.00
62708;BME280;48769;51.624;5.886;2023-07-29T06:14:22;100585.28;;;19.77;100.00
62708;BME280;48769;51.624;5.886;2023-07-29T06:16:47;100579.94;;;20.14;100.00
62708;BME280;48769;51.624;5.886;2023-07-29T06:19:12;100577.59;;;20.39;100.00
62708;BME280;48769;51.624;5.886;2023-07-29T06:21:38;100578.38;;;20.49;100.00
62708;BME280;48769;51.624;5.886;2023-07-29T06:24:04;100571.31;;;20.58;100.00
62708;BME280;48769;51.624;5.886;2023-07-29T06:26:29;100579.69;;;21.08;100.00
62708;BME280;48769;51.624;5.886;2023-07-29T06:28:54;100574.66;;;21.93;100.00
62708;BME280;48769;51.624;5.886;2023-07-29T06:31:20;100570.22;;;22.44;100.00
62708;BME280;48769;51.624;5.886;2023-07-29T06:33:45;100566.25;;;22.64;100.00
62708;BME280;48769;51.624;5.886;2023-07-29T06:36:11;100568.63;;;21.91;100.00
62708;BME280;48769;51.624;5.886;2023-07-29T06:38:37;100576.47;;;21.40;100.00
62708;BME280;48769;51.624;5.886;2023-07-29T06:41:04;100581.31;;;21.01;100.00
62708;BME280;48769;51.624;5.886;2023-07-29T06:43:29;100577.22;;;20.61;100.00
62708;BME280;48769;51.624;5.886;2023-07-29T06:45:54;100576.44;;;20.41;100.00
62708;BME280;48769;51.624;5.886;2023-07-29T06:48:20;100584.31;;;20.52;100.00
62708;BME280;48769;51.624;5.886;2023-07-29T06:50:46;100576.97;;;21.36;100.00
62708;BME280;48769;51.624;5.886;2023-07-29T06:53:11;100573.38;;;22.05;100.00
62708;BME280;48769;51.624;5.886;2023-07-29T06:55:37;100574.56;;;21.77;100.00
62708;BME280;48769;51.624;5.886;2023-07-29T06:58:05;100583.22;;;21.44;100.00
62708;BME280;48769;51.624;5.886;2023-07-29T07:00:31;100586.00;;;21.35;100.00
62708;BME280;48769;51.624;5.886;2023-07-29T07:02:56;100570.13;;;21.67;100.00
62708;BME280;48769;51.624;5.886;2023-07-29T07:05:21;100584.88;;;21.63;100.00
62708;BME280;48769;51.624;5.886;2023-07-29T07:07:47;100592.19;;;21.53;100.00
62708;BME280;48769;51.624;5.886;2023-07-29T07:10:13;100584.22;;;21.43;100.00
62708;BME280;48769;51.624;5.886;2023-07-29T07:12:42;100586.78;;;21.45;100.00
62708;BME280;48769;51.624;5.886;2023-07-29T07:15:07;100589.59;;;22.13;100.00
62708;BME280;48769;51.624;5.886;2023-07-29T07:17:33;100588.25;;;23.19;100.00
62708;BME280;48769;51.624;5.886;2023-07-29T07:19:58;100580.03;;;23.28;100.00
62708;BME280;48769;51.624;5.886;2023-07-29T07:22:24;100583.50;;;22.88;100.00
62708;BME280;48769;51.624;5.886;2023-07-29T07:24:49;100585.22;;;23.14;100.00
62708;BME280;48769;51.624;5.886;2023-07-29T07:27:14;100586.06;;;22.55;100.00
62708;BME280;48769;51.624;5.886;2023-07-29T07:29:40;100591.16;;;22.24;100.00
62708;BME280;48769;51.624;5.886;2023-07-29T07:32:05;100588.56;;;22.14;100.00
62708;BME280;48769;51.624;5.886;2023-07-29T07:34:31;100596.53;;;23.50;100.00
62708;BME280;48769;51.624;5.886;2023-07-29T07:36:58;100600.56;;;23.38;100.00
62708;BME280;48769;51.624;5.886;2023-07-29T07:39:23;100596.63;;;22.91;100.00
62708;BME280;48769;51.624;5.886;2023-07-29T07:41:49;100595.47;;;22.43;100.00
62708;BME280;48769;51.624;5.886;2023-07-29T07:44:14;100598.19;;;21.91;100.00
62708;BME280;48769;51.624;5.886;2023-07-29T07:46:42;100606.47;;;21.72;100.00
62708;BME280;48769;51.624;5.886;2023-07-29T07:49:08;100609.25;;;21.44;100.00
62708;BME280;48769;51.624;5.886;2023-07-29T07:51:33;100611.09;;;21.26;100.00
62708;BME280;48769;51.624;5.886;2023-07-29T07:53:58;100613.88;;;21.16;100.00
62708;BME280;48769;51.624;5.886;2023-07-29T07:56:24;100606.25;;;21.11;100.00
62708;BME280;48769;51.624;5.886;2023-07-29T07:58:49;100612.47;;;21.12;100.00
62708;BME280;48769;51.624;5.886;2023-07-29T08:01:14;100607.94;;;21.12;100.00
62708;BME280;48769;51.624;5.886;2023-07-29T08:03:39;100606.41;;;21.28;100.00
62708;BME280;48769;51.624;5.886;2023-07-29T08:06:05;100601.16;;;21.36;100.00
62708;BME280;48769;51.624;5.886;2023-07-29T08:08:30;100612.34;;;21.49;100.00
62708;BME280;48769;51.624;5.886;2023-07-29T08:10:58;100612.34;;;21.49;100.00
62708;BME280;48769;51.624;5.886;2023-07-29T08:13:24;100607.72;;;21.41;100.00
62708;BME280;48769;51.624;5.886;2023-07-29T08:15:51;100608.03;;;21.38;100.00
62708;BME280;48769;51.624;5.886;2023-07-29T08:18:19;100608.03;;;21.38;100.00
62708;BME280;48769;51.624;5.886;2023-07-29T08:20:56;100607.19;;;21.38;100.00
62708;BME280;48769;51.624;5.886;2023-07-29T08:23:27;100609.88;;;21.38;100.00
62708;BME280;48769;51.624;5.886;2023-07-29T08:25:54;100601.09;;;21.54;100.00
62708;BME280;48769;51.624;5.886;2023-07-29T08:28:22;100607.09;;;21.47;100.00
62708;BME280;48769;51.624;5.886;2023-07-29T08:30:47;100606.25;;;21.47;100.00
62708;BME280;48769;51.624;5.886;2023-07-29T08:33:12;100598.81;;;21.59;100.00
62708;BME280;48769;51.624;5.886;2023-07-29T08:35:38;100614.09;;;21.58;100.00
62708;BME280;48769;51.624;5.886;2023-07-29T08:38:03;100612.50;;;21.74;100.00
62708;BME280;48769;51.624;5.886;2023-07-29T08:40:30;100613.63;;;21.89;100.00
62708;BME280;48769;51.624;5.886;2023-07-29T08:42:58;100613.16;;;21.93;100.00
62708;BME280;48769;51.624;5.886;2023-07-29T08:45:26;100623.03;;;21.85;100.00
62708;BME280;48769;51.624;5.886;2023-07-29T08:47:54;100629.38;;;21.84;100.00
62708;BME280;48769;51.624;5.886;2023-07-29T08:50:23;100637.94;;;21.79;100.00
62708;BME280;48769;51.624;5.886;2023-07-29T08:52:51;100627.56;;;21.84;100.00
62708;BME280;48769;51.624;5.886;2023-07-29T08:55:18;100623.06;;;21.93;100.00
62708;BME280;48769;51.624;5.886;2023-07-29T08:57:44;100630.47;;;21.91;100.00
62708;BME280;48769;51.624;5.886;2023-07-29T09:00:11;100612.94;;;21.87;100.00
62708;BME280;48769;51.624;5.886;2023-07-29T09:02:36;100617.56;;;22.03;100.00
62708;BME280;48769;51.624;5.886;2023-07-29T09:05:02;100606.09;;;22.19;100.00
62708;BME280;48769;51.624;5.886;2023-07-29T09:07:28;100607.13;;;22.26;100.00
62708;BME280;48769;51.624;5.886;2023-07-29T09:09:54;100628.03;;;22.32;100.00
62708;BME280;48769;51.624;5.886;2023-07-29T09:12:19;100617.97;;;22.42;100.00
62708;BME280;48769;51.624;5.886;2023-07-29T09:14:45;100599.56;;;22.63;100.00
62708;BME280;48769;51.624;5.886;2023-07-29T09:17:10;100600.72;;;22.61;100.00
62708;BME280;48769;51.624;5.886;2023-07-29T09:19:35;100605.47;;;22.59;100.00
62708;BME280;48769;51.624;5.886;2023-07-29T09:22:01;100600.91;;;22.68;100.00
62708;BME280;48769;51.624;5.886;2023-07-29T09:24:27;100595.72;;;22.74;100.00
62708;BME280;48769;51.624;5.886;2023-07-29T09:26:55;100586.00;;;22.81;100.00
62708;BME280;48769;51.624;5.886;2023-07-29T09:29:27;100586.50;;;22.85;100.00
62708;BME280;48769;51.624;5.886;2023-07-29T09:31:53;100587.53;;;22.92;100.00
62708;BME280;48769;51.624;5.886;2023-07-29T09:34:18;100590.97;;;23.19;100.00
62708;BME280;48769;51.624;5.886;2023-07-29T09:36:43;100588.59;;;23.32;100.00
62708;BME280;48769;51.624;5.886;2023-07-29T09:39:12;100588.94;;;23.29;100.00
62708;BME280;48769;51.624;5.886;2023-07-29T09:41:40;100589.59;;;23.23;100.00
62708;BME280;48769;51.624;5.886;2023-07-29T09:44:07;100581.53;;;23.23;100.00
62708;BME280;48769;51.624;5.886;2023-07-29T09:46:36;100573.94;;;23.26;100.00
62708;BME280;48769;51.624;5.886;2023-07-29T09:49:07;100574.44;;;23.30;100.00
62708;BME280;48769;51.624;5.886;2023-07-29T09:51:38;100580.69;;;23.39;100.00
62708;BME280;48769;51.624;5.886;2023-07-29T09:54:04;100576.81;;;23.25;100.00
62708;BME280;48769;51.624;5.886;2023-07-29T09:56:30;100572.09;;;23.19;100.00
62708;BME280;48769;51.624;5.886;2023-07-29T09:58:56;100585.75;;;23.17;100.00
62708;BME280;48769;51.624;5.886;2023-07-29T10:01:22;100582.03;;;23.18;100.00
62708;BME280;48769;51.624;5.886;2023-07-29T10:03:48;100581.88;;;23.12;100.00
62708;BME280;48769;51.624;5.886;2023-07-29T10:06:14;100585.22;;;23.14;100.00
62708;BME280;48769;51.624;5.886;2023-07-29T10:08:40;100580.84;;;23.29;100.00
62708;BME280;48769;51.624;5.886;2023-07-29T10:11:06;100591.28;;;23.16;100.00
62708;BME280;48769;51.624;5.886;2023-07-29T10:13:33;100588.06;;;23.04;100.00
62708;BME280;48769;51.624;5.886;2023-07-29T10:15:59;100585.50;;;22.86;100.00
62708;BME280;48769;51.624;5.886;2023-07-29T10:18:28;100592.09;;;22.92;100.00
62708;BME280;48769;51.624;5.886;2023-07-29T10:20:54;100589.94;;;22.95;100.00
62708;BME280;48769;51.624;5.886;2023-07-29T10:23:22;100597.03;;;23.04;100.00
62708;BME280;48769;51.624;5.886;2023-07-29T10:25:55;100599.03;;;23.02;100.00
62708;BME280;48769;51.624;5.886;2023-07-29T10:28:25;100598.00;;;22.95;100.00
62708;BME280;48769;51.624;5.886;2023-07-29T10:30:51;100597.09;;;22.86;100.00
62708;BME280;48769;51.624;5.886;2023-07-29T10:33:17;100589.25;;;22.93;100.00
62708;BME280;48769;51.624;5.886;2023-07-29T10:35:42;100586.25;;;23.04;100.00
62708;BME280;48769;51.624;5.886;2023-07-29T10:38:08;100579.50;;;23.17;100.00
62708;BME280;48769;51.624;5.886;2023-07-29T10:40:55;100574.97;;;23.50;100.00
62708;BME280;48769;51.624;5.886;2023-07-29T10:43:37;100580.19;;;23.51;100.00
62708;BME280;48769;51.624;5.886;2023-07-29T10:46:31;100580.19;;;23.51;100.00
62708;BME280;48769;51.624;5.886;2023-07-29T10:49:01;100574.81;;;23.43;100.00
62708;BME280;48769;51.624;5.886;2023-07-29T10:51:37;100576.81;;;23.33;100.00
62708;BME280;48769;51.624;5.886;2023-07-29T10:54:09;100574.44;;;23.30;100.00
62708;BME280;48769;51.624;5.886;2023-07-29T10:56:36;100563.66;;;23.30;100.00
62708;BME280;48769;51.624;5.886;2023-07-29T11:01:51;100564.00;;;23.60;100.00
62708;BME280;48769;51.624;5.886;2023-07-29T11:09:41;100565.78;;;24.08;100.00
62708;BME280;48769;51.624;5.886;2023-07-29T11:20:14;100564.06;;;24.15;100.00
62708;BME280;48769;51.624;5.886;2023-07-29T11:22:40;100570.34;;;23.99;100.00
62708;BME280;48769;51.624;5.886;2023-07-29T11:25:11;100562.75;;;23.95;100.00
62708;BME280;48769;51.624;5.886;2023-07-29T11:27:37;100563.63;;;23.87;100.00
62708;BME280;48769;51.624;5.886;2023-07-29T11:30:10;100552.00;;;23.78;100.00
62708;BME280;48769;51.624;5.886;2023-07-29T11:32:37;100557.94;;;23.74;100.00
62708;BME280;48769;51.624;5.886;2023-07-29T11:35:04;100565.34;;;23.72;100.00
62708;BME280;48769;51.624;5.886;2023-07-29T11:37:29;100563.66;;;23.63;100.00
62708;BME280;48769;51.624;5.886;2023-07-29T11:39:55;100561.97;;;23.45;100.00
62708;BME280;48769;51.624;5.886;2023-07-29T11:42:20;100555.09;;;23.35;100.00
62708;BME280;48769;51.624;5.886;2023-07-29T11:44:46;100555.94;;;23.35;100.00
62708;BME280;48769;51.624;5.886;2023-07-29T11:47:12;100553.91;;;23.37;100.00
62708;BME280;48769;51.624;5.886;2023-07-29T11:49:39;100564.38;;;23.40;100.00
62708;BME280;48769;51.624;5.886;2023-07-29T11:52:06;100556.59;;;23.37;100.00
62708;BME280;48769;51.624;5.886;2023-07-29T11:54:32;100565.34;;;23.39;100.00
62708;BME280;48769;51.624;5.886;2023-07-29T11:56:58;100569.91;;;23.39;100.00
62708;BME280;48769;51.624;5.886;2023-07-29T11:59:23;100578.16;;;23.45;100.00
62708;BME280;48769;51.624;5.886;2023-07-29T12:01:49;100584.22;;;23.55;100.00
62708;BME280;48769;51.624;5.886;2023-07-29T12:04:14;100567.69;;;23.59;100.00
62708;BME280;48769;51.624;5.886;2023-07-29T12:06:44;100568.53;;;23.59;100.00
62708;BME280;48769;51.624;5.886;2023-07-29T12:09:09;100565.69;;;23.61;100.00
62708;BME280;48769;51.624;5.886;2023-07-29T12:11:35;100559.09;;;23.55;100.00
62708;BME280;48769;51.624;5.886;2023-07-29T12:14:00;100560.63;;;23.58;100.00
62708;BME280;48769;51.624;5.886;2023-07-29T12:16:26;100555.41;;;23.64;100.00
62708;BME280;48769;51.624;5.886;2023-07-29T12:18:51;100568.69;;;23.82;100.00
62708;BME280;48769;51.624;5.886;2023-07-29T12:21:18;100562.41;;;24.06;100.00
62708;BME280;48769;51.624;5.886;2023-07-29T12:23:44;100557.47;;;24.18;100.00
62708;BME280;48769;51.624;5.886;2023-07-29T12:26:09;100543.94;;;24.26;100.00
62708;BME280;48769;51.624;5.886;2023-07-29T12:28:34;100555.44;;;24.20;100.00
62708;BME280;48769;51.624;5.886;2023-07-29T12:30:59;100556.88;;;23.99;100.00
62708;BME280;48769;51.624;5.886;2023-07-29T12:33:37;100588.63;;;23.73;100.00
62708;BME280;48769;51.624;5.886;2023-07-29T12:36:04;100595.34;;;23.52;100.00
62708;BME280;48769;51.624;5.886;2023-07-29T12:38:30;100605.47;;;23.34;100.00
62708;BME280;48769;51.624;5.886;2023-07-29T12:40:55;100597.69;;;23.15;100.00
62708;BME280;48769;51.624;5.886;2023-07-29T12:43:21;100604.22;;;23.04;100.00
62708;BME280;48769;51.624;5.886;2023-07-29T12:45:46;100606.94;;;22.96;100.00
62708;BME280;48769;51.624;5.886;2023-07-29T12:48:14;100615.63;;;22.81;100.00
62708;BME280;48769;51.624;5.886;2023-07-29T12:50:40;100630.53;;;22.68;100.00
62708;BME280;48769;51.624;5.886;2023-07-29T12:53:07;100644.34;;;22.30;100.00
62708;BME280;48769;51.624;5.886;2023-07-29T12:55:32;100679.53;;;21.93;100.00
62708;BME280;48769;51.624;5.886;2023-07-29T12:57:57;100651.94;;;21.29;100.00
62708;BME280;48769;51.624;5.886;2023-07-29T13:00:24;100665.16;;;20.95;100.00